Time;durP1;ratioP1;P1;durP2;ratioP2;P2;SDS_P1;SDS_P2;PMS_P1;PMS_P2;Temp;Humidity;BMP_temperature;BMP_pressure;BME280_temperature;BME280_humidity;BME280_pressure;Samples;Min_cycle;Max_cycle;Signal;HPM_P1;HPM_P2
2022/06/28 00:01:36;;;;;;;;;;;;;;;18.21;84.04;95516.28;5135561;27;1028;-48
2022/06/28 00:04:02;;;;;;;;;;;;;;;17.97;84.86;95517.63;5134859;27;1989;-49
2022/06/28 00:06:28;;;;;;;;;;;;;;;17.86;84.90;95517.13;5135708;27;1013;-49
2022/06/28 00:08:54;;;;;;;;;;;;;;;17.91;84.56;95513.84;5135354;27;973;-48
2022/06/28 00:11:20;;;;;;;;;;;;;;;17.82;85.67;95514.97;5135379;27;961;-48
2022/06/28 00:13:46;;;;;;;;;;;;;;;17.94;85.08;95516.94;5135076;27;1091;-48
2022/06/28 00:16:16;;;;;;;;;;;;;;;17.94;84.77;95516.13;5135164;27;969;-49
2022/06/28 00:18:42;;;;;;;;;;;;;;;18.04;84.42;95510.34;5134931;27;1068;-49
2022/06/28 00:21:09;;;;;;;;;;;;;;;17.93;84.81;95511.75;5134467;27;1222;-49
2022/06/28 00:23:36;;;;;;;;;;;;;;;17.89;84.89;95510.47;5135084;27;1047;-49
2022/06/28 00:26:03;;;;;;;;;;;;;;;17.93;84.74;95507.19;5135057;27;1906;-49
2022/06/28 00:28:29;;;;;;;;;;;;;;;17.86;85.57;95508.16;5134854;27;1071;-49
2022/06/28 00:30:55;;;;;;;;;;;;;;;17.87;84.39;95505.28;5134953;27;1087;-49
2022/06/28 00:33:21;;;;;;;;;;;;;;;17.75;85.06;95504.94;5134594;27;1016;-49
2022/06/28 00:35:47;;;;;;;;;;;;;;;17.46;85.33;95492.44;5134900;27;973;-49
2022/06/28 00:38:13;;;;;;;;;;;;;;;17.29;86.74;95488.34;5116397;27;1020;-49
2022/06/28 00:40:49;;;;;;;;;;;;;;;17.43;86.68;95486.59;5134910;27;1032;-49
2022/06/28 00:43:16;;;;;;;;;;;;;;;17.53;85.75;95492.53;5148298;27;1289;-49
2022/06/28 00:45:43;;;;;;;;;;;;;;;17.51;85.62;95489.16;5155315;27;1909;-49
2022/06/28 00:48:12;;;;;;;;;;;;;;;17.40;86.42;95487.00;5155477;27;960;-49
2022/06/28 00:50:38;;;;;;;;;;;;;;;17.33;86.44;95489.63;5155357;27;1028;-49
2022/06/28 00:53:07;;;;;;;;;;;;;;;17.30;86.34;95490.00;5155293;27;1035;-49
2022/06/28 00:55:33;;;;;;;;;;;;;;;17.47;85.94;95496.84;5155315;27;1023;-48
2022/06/28 00:58:00;;;;;;;;;;;;;;;17.62;84.85;95494.00;5155319;27;1164;-48
2022/06/28 01:00:27;;;;;;;;;;;;;;;17.62;84.92;95488.59;5154946;27;1011;-48
2022/06/28 01:02:54;;;;;;;;;;;;;;;17.72;84.09;95499.94;5155170;27;1067;-48
2022/06/28 01:05:20;;;;;;;;;;;;;;;17.64;85.43;95491.97;5154561;27;1998;-49
2022/06/28 01:07:46;;;;;;;;;;;;;;;17.56;85.70;95495.63;5155263;27;1048;-49
2022/06/28 01:10:12;;;;;;;;;;;;;;;17.51;85.31;95497.25;5154946;27;973;-48
2022/06/28 01:12:38;;;;;;;;;;;;;;;17.44;85.48;95496.38;5155128;27;1042;-48
2022/06/28 01:15:05;;;;;;;;;;;;;;;17.44;85.29;95490.97;5154663;27;1031;-49
2022/06/28 01:17:31;;;;;;;;;;;;;;;17.34;85.63;95494.84;5155262;27;993;-48
2022/06/28 01:19:57;;;;;;;;;;;;;;;17.29;84.89;95491.88;5155217;27;1052;-49
2022/06/28 01:22:26;;;;;;;;;;;;;;;17.11;85.70;95494.22;5154766;27;1222;-48
2022/06/28 01:24:52;;;;;;;;;;;;;;;16.93;86.38;95492.78;5154816;27;1910;-48
2022/06/28 01:27:18;;;;;;;;;;;;;;;17.01;86.91;95485.59;5154891;27;998;-48
2022/06/28 01:29:45;;;;;;;;;;;;;;;17.20;86.38;95484.94;5154637;27;979;-48
2022/06/28 01:32:13;;;;;;;;;;;;;;;17.25;85.86;95479.81;5156425;27;968;-49
2022/06/28 01:34:39;;;;;;;;;;;;;;;17.24;85.21;95474.59;5159013;27;1076;-49
2022/06/28 01:37:05;;;;;;;;;;;;;;;17.12;85.67;95482.38;5159184;27;1030;-48
2022/06/28 01:39:31;;;;;;;;;;;;;;;16.85;86.56;95473.19;5158950;27;969;-48
2022/06/28 01:41:58;;;;;;;;;;;;;;;16.79;87.07;95480.16;5156267;27;1160;-48
2022/06/28 01:44:24;;;;;;;;;;;;;;;17.01;85.85;95483.72;5137820;27;1913;-48
2022/06/28 01:46:50;;;;;;;;;;;;;;;16.96;85.91;95480.78;5138435;27;1091;-49
2022/06/28 01:49:16;;;;;;;;;;;;;;;16.84;86.90;95485.84;5137900;27;1068;-48
2022/06/28 01:51:43;;;;;;;;;;;;;;;16.76;87.09;95483.25;5138099;27;1028;-48
2022/06/28 01:54:08;;;;;;;;;;;;;;;16.78;87.46;95482.00;5138082;27;1057;-48
2022/06/28 01:56:35;;;;;;;;;;;;;;;16.96;86.57;95484.31;5137791;27;1087;-48
2022/06/28 01:59:02;;;;;;;;;;;;;;;16.93;86.58;95484.69;5137844;27;987;-48
2022/06/28 02:01:28;;;;;;;;;;;;;;;17.09;86.15;95477.34;5137964;27;1056;-48
2022/06/28 02:03:54;;;;;;;;;;;;;;;17.10;85.85;95484.44;5137694;27;1903;-48
2022/06/28 02:06:20;;;;;;;;;;;;;;;17.01;85.76;95486.44;5137312;27;1032;-48
2022/06/28 02:08:46;;;;;;;;;;;;;;;17.10;85.81;95481.75;5137826;27;962;-48
2022/06/28 02:11:12;;;;;;;;;;;;;;;16.87;86.91;95479.25;5137493;27;1010;-48
2022/06/28 02:13:38;;;;;;;;;;;;;;;16.89;87.06;95477.19;5137533;27;1079;-49
2022/06/28 02:16:04;;;;;;;;;;;;;;;16.92;86.42;95479.47;5137541;27;1031;-48
2022/06/28 02:18:33;;;;;;;;;;;;;;;16.81;85.53;95480.81;5137562;27;1040;-48
2022/06/28 02:20:59;;;;;;;;;;;;;;;16.70;86.47;95476.75;5137141;27;1189;-48
2022/06/28 02:23:25;;;;;;;;;;;;;;;16.94;85.24;95474.72;5137581;27;1047;-48
2022/06/28 02:25:51;;;;;;;;;;;;;;;17.04;85.24;95474.44;5137232;27;1987;-49
2022/06/28 02:28:17;;;;;;;;;;;;;;;17.04;86.43;95479.81;5137212;27;983;-49
2022/06/28 02:30:44;;;;;;;;;;;;;;;16.92;86.35;95474.94;5137151;27;1027;-48
2022/06/28 02:33:10;;;;;;;;;;;;;;;16.88;86.30;95475.50;5137390;27;999;-48
2022/06/28 02:41:04;;;;;;;;;;;;;;;16.71;85.87;95470.34;5137198;27;977;-48
2022/06/28 02:43:30;;;;;;;;;;;;;;;16.64;86.35;95476.66;5152544;27;1220;-48
2022/06/28 02:45:56;;;;;;;;;;;;;;;16.57;87.23;95474.72;5157472;27;1905;-48
2022/06/28 02:48:22;;;;;;;;;;;;;;;16.54;86.97;95475.13;5157703;27;1043;-48
2022/06/28 02:50:48;;;;;;;;;;;;;;;16.42;87.67;95473.94;5157594;27;1046;-48
2022/06/28 02:53:14;;;;;;;;;;;;;;;16.35;88.00;95470.31;5157457;27;968;-48
2022/06/28 02:55:40;;;;;;;;;;;;;;;16.46;87.62;95472.53;5157377;27;1032;-48
2022/06/28 02:58:06;;;;;;;;;;;;;;;16.56;87.05;95466.81;5157633;27;1047;-48
2022/06/28 03:00:32;;;;;;;;;;;;;;;16.52;87.08;95482.59;5157296;27;1036;-48
2022/06/28 03:02:58;;;;;;;;;;;;;;;16.53;87.54;95476.13;5157519;27;1050;-48
2022/06/28 03:05:24;;;;;;;;;;;;;;;16.41;86.83;95464.19;5157038;27;1913;-48
2022/06/28 03:07:50;;;;;;;;;;;;;;;16.29;87.35;95466.50;5157139;27;1032;-48
2022/06/28 03:10:18;;;;;;;;;;;;;;;16.07;88.66;95462.94;5139061;27;956;-48
2022/06/28 03:12:44;;;;;;;;;;;;;;;16.29;88.74;95476.47;5157244;27;1016;-48
2022/06/28 03:15:11;;;;;;;;;;;;;;;16.47;88.02;95476.91;5157307;27;1043;-48
2022/06/28 03:17:37;;;;;;;;;;;;;;;16.60;87.46;95473.53;5156948;27;1098;-48
2022/06/28 03:20:03;;;;;;;;;;;;;;;16.59;86.80;95469.97;5157053;27;1043;-48
2022/06/28 03:22:29;;;;;;;;;;;;;;;16.42;87.04;95479.31;5156714;27;1272;-48
2022/06/28 03:24:56;;;;;;;;;;;;;;;16.48;87.54;95483.13;5157209;27;1896;-48
2022/06/28 03:27:22;;;;;;;;;;;;;;;16.55;87.46;95484.88;5157103;27;956;-48
2022/06/28 03:29:48;;;;;;;;;;;;;;;16.29;88.01;95474.59;5157087;27;976;-48
2022/06/28 03:32:14;;;;;;;;;;;;;;;16.45;87.87;95480.78;5156761;27;1003;-48
2022/06/28 03:34:40;;;;;;;;;;;;;;;16.73;86.49;95470.13;5156678;27;984;-48
2022/06/28 03:37:06;;;;;;;;;;;;;;;16.66;87.43;95472.75;5156954;27;1070;-48
2022/06/28 03:39:32;;;;;;;;;;;;;;;16.73;86.81;95473.69;5156979;27;998;-48
2022/06/28 03:41:58;;;;;;;;;;;;;;;16.84;87.50;95480.44;5153623;27;1156;-48
2022/06/28 03:44:24;;;;;;;;;;;;;;;16.92;86.65;95482.19;5135934;27;1913;-48
2022/06/28 03:46:50;;;;;;;;;;;;;;;16.85;87.61;95489.41;5135783;27;1044;-48
2022/06/28 03:49:16;;;;;;;;;;;;;;;16.95;87.84;95493.44;5135796;27;1028;-48
2022/06/28 03:51:42;;;;;;;;;;;;;;;17.20;87.02;95503.84;5135503;27;1066;-48
2022/06/28 03:54:08;;;;;;;;;;;;;;;17.27;87.54;95501.22;5134989;27;1023;-48
2022/06/28 03:56:34;;;;;;;;;;;;;;;17.33;87.53;95505.84;5135326;27;953;-48
2022/06/28 03:59:00;;;;;;;;;;;;;;;17.44;87.71;95502.63;5135749;27;999;-48
2022/06/28 04:01:26;;;;;;;;;;;;;;;17.77;86.00;95502.03;5135533;27;1060;-48
2022/06/28 04:03:52;;;;;;;;;;;;;;;18.04;84.91;95511.22;5135593;27;1040;-48
2022/06/28 04:06:18;;;;;;;;;;;;;;;18.24;84.04;95510.47;5134841;27;1973;-48
2022/06/28 04:08:44;;;;;;;;;;;;;;;18.40;84.88;95510.16;5135359;27;1028;-48
2022/06/28 04:11:16;;;;;;;;;;;;;;;18.46;83.85;95506.63;5135383;27;972;-49
2022/06/28 04:13:44;;;;;;;;;;;;;;;18.65;83.16;95509.63;5135616;27;1019;-48
2022/06/28 04:16:10;;;;;;;;;;;;;;;18.95;80.84;95510.16;5135240;27;1196;-48
2022/06/28 04:18:36;;;;;;;;;;;;;;;18.91;83.64;95511.59;5135185;27;980;-48
2022/06/28 04:21:02;;;;;;;;;;;;;;;18.88;83.54;95512.84;5134919;27;1250;-48
2022/06/28 04:23:28;;;;;;;;;;;;;;;18.96;84.13;95519.13;5134849;27;1084;-48
2022/06/28 04:25:54;;;;;;;;;;;;;;;19.08;83.59;95512.06;5134959;27;1914;-48
2022/06/28 04:28:20;;;;;;;;;;;;;;;19.24;82.49;95517.09;5134910;27;1048;-48
2022/06/28 04:30:46;;;;;;;;;;;;;;;19.51;83.66;95519.84;5135109;27;988;-48
2022/06/28 04:33:12;;;;;;;;;;;;;;;19.72;81.52;95520.69;5134793;27;1081;-48
2022/06/28 04:35:38;;;;;;;;;;;;;;;19.61;81.70;95520.25;5134654;27;975;-48
2022/06/28 04:38:04;;;;;;;;;;;;;;;19.75;80.39;95521.13;5134617;27;1044;-48
2022/06/28 04:40:30;;;;;;;;;;;;;;;20.04;79.87;95519.84;5134739;27;1111;-48
2022/06/28 04:42:56;;;;;;;;;;;;;;;20.17;77.43;95520.88;5145742;27;1149;-49
2022/06/28 04:45:22;;;;;;;;;;;;;;;20.34;77.42;95519.38;5155299;27;1905;-49
2022/06/28 04:47:48;;;;;;;;;;;;;;;20.45;77.69;95521.44;5155390;27;1042;-49
2022/06/28 04:50:14;;;;;;;;;;;;;;;20.55;77.38;95522.88;5155304;27;1023;-49
2022/06/28 04:52:40;;;;;;;;;;;;;;;20.63;76.07;95519.94;5155108;27;976;-48
2022/06/28 04:55:06;;;;;;;;;;;;;;;20.83;76.64;95517.97;5155174;27;1040;-49
2022/06/28 04:57:32;;;;;;;;;;;;;;;20.92;75.13;95515.81;5155240;27;1016;-48
2022/06/28 04:59:58;;;;;;;;;;;;;;;21.09;76.97;95521.56;5155225;27;1040;-49
2022/06/28 05:02:24;;;;;;;;;;;;;;;21.17;76.87;95523.22;5155075;27;1048;-49
2022/06/28 05:04:50;;;;;;;;;;;;;;;21.17;75.72;95524.06;5154847;27;1909;-48
2022/06/28 05:07:16;;;;;;;;;;;;;;;21.23;76.02;95517.75;5154598;27;1035;-48
2022/06/28 05:09:43;;;;;;;;;;;;;;;21.31;76.94;95535.69;5155346;27;1040;-48
2022/06/28 05:12:09;;;;;;;;;;;;;;;21.45;74.30;95531.84;5155022;27;964;-48
2022/06/28 05:14:35;;;;;;;;;;;;;;;21.55;73.18;95527.81;5155042;27;1023;-48
2022/06/28 05:17:01;;;;;;;;;;;;;;;21.70;72.74;95530.19;5154917;27;991;-48
2022/06/28 05:19:28;;;;;;;;;;;;;;;21.82;72.44;95521.09;5155038;27;1051;-48
2022/06/28 05:21:54;;;;;;;;;;;;;;;21.94;72.05;95514.94;5154769;27;1952;-48
2022/06/28 05:24:20;;;;;;;;;;;;;;;22.00;71.33;95523.03;5154906;27;1901;-48
2022/06/28 05:26:46;;;;;;;;;;;;;;;22.10;72.04;95516.25;5155100;27;972;-48
2022/06/28 05:29:12;;;;;;;;;;;;;;;22.20;72.04;95517.41;5154779;27;1027;-49
2022/06/28 05:31:38;;;;;;;;;;;;;;;22.29;72.15;95539.78;5154984;27;976;-49
2022/06/28 05:34:04;;;;;;;;;;;;;;;22.44;71.97;95530.38;5154382;27;1044;-49
2022/06/28 05:36:30;;;;;;;;;;;;;;;22.63;70.38;95537.50;5154737;27;976;-49
2022/06/28 05:38:57;;;;;;;;;;;;;;;22.53;72.22;95531.75;5154896;27;1000;-49
2022/06/28 05:41:23;;;;;;;;;;;;;;;22.56;72.44;95539.47;5154672;27;1209;-48
2022/06/28 05:43:49;;;;;;;;;;;;;;;22.69;70.74;95535.75;5135931;27;1160;-48
2022/06/28 05:46:15;;;;;;;;;;;;;;;22.81;69.86;95528.50;5133933;28;1980;-48
2022/06/28 05:48:41;;;;;;;;;;;;;;;23.03;69.27;95525.25;5133828;28;1072;-48
2022/06/28 05:51:07;;;;;;;;;;;;;;;23.20;69.70;95529.03;5133842;28;993;-48
2022/06/28 05:53:33;;;;;;;;;;;;;;;23.40;69.11;95526.03;5133766;28;1040;-49
2022/06/28 05:55:59;;;;;;;;;;;;;;;23.52;68.41;95526.94;5134145;28;1063;-49
2022/06/28 05:58:25;;;;;;;;;;;;;;;23.65;69.12;95522.31;5133909;28;967;-49
2022/06/28 06:00:51;;;;;;;;;;;;;;;23.67;70.12;95525.63;5133900;28;1850;-49
2022/06/28 06:03:17;;;;;;;;;;;;;;;23.77;67.91;95525.88;5133703;28;1044;-49
2022/06/28 06:05:43;;;;;;;;;;;;;;;23.86;68.17;95524.50;5133505;28;1906;-49
2022/06/28 06:08:09;;;;;;;;;;;;;;;23.96;66.96;95523.94;5133586;28;1016;-48
2022/06/28 06:10:35;;;;;;;;;;;;;;;24.04;67.75;95520.84;5134014;28;972;-49
2022/06/28 06:13:02;;;;;;;;;;;;;;;24.10;69.44;95519.91;5133517;28;1886;-49
2022/06/28 06:15:28;;;;;;;;;;;;;;;24.32;68.26;95525.63;5133802;28;984;-49
2022/06/28 06:17:54;;;;;;;;;;;;;;;24.30;68.59;95526.91;5134382;27;1024;-49
2022/06/28 06:20:20;;;;;;;;;;;;;;;24.15;66.54;95522.75;5137110;27;1198;-49
2022/06/28 06:22:47;;;;;;;;;;;;;;;24.13;68.17;95524.06;5137508;27;1066;-49
2022/06/28 06:25:13;;;;;;;;;;;;;;;24.20;68.51;95523.94;5137349;27;1947;-49
2022/06/28 06:27:39;;;;;;;;;;;;;;;24.22;66.69;95530.00;5137560;27;1019;-49
2022/06/28 06:30:06;;;;;;;;;;;;;;;24.39;66.43;95511.00;5137170;27;996;-49
2022/06/28 06:32:33;;;;;;;;;;;;;;;24.41;66.71;95520.59;5137419;27;965;-49
2022/06/28 06:34:59;;;;;;;;;;;;;;;24.67;65.52;95513.81;5136813;27;1092;-49
2022/06/28 06:37:25;;;;;;;;;;;;;;;24.94;65.04;95518.75;5137385;27;969;-49
2022/06/28 06:39:51;;;;;;;;;;;;;;;25.17;65.34;95522.47;5137125;27;999;-49
2022/06/28 06:42:17;;;;;;;;;;;;;;;25.18;65.10;95518.69;5142310;27;1282;-49
2022/06/28 06:44:43;;;;;;;;;;;;;;;25.34;64.27;95517.91;5157558;27;1986;-49
2022/06/28 06:47:09;;;;;;;;;;;;;;;25.43;64.19;95499.19;5157742;27;983;-49
2022/06/28 06:49:35;;;;;;;;;;;;;;;25.60;64.14;95494.56;5157496;27;972;-49
2022/06/28 06:52:02;;;;;;;;;;;;;;;25.80;64.56;95504.19;5157857;27;1027;-49
2022/06/28 06:54:28;;;;;;;;;;;;;;;25.88;64.91;95496.41;5157669;27;964;-49
2022/06/28 06:56:54;;;;;;;;;;;;;;;25.94;62.38;95497.34;5157738;27;995;-49
2022/06/28 06:59:20;;;;;;;;;;;;;;;26.04;62.32;95500.25;5157248;27;1296;-49
2022/06/28 07:01:46;;;;;;;;;;;;;;;26.15;60.68;95493.03;5157590;27;1056;-49
2022/06/28 07:04:13;;;;;;;;;;;;;;;26.26;60.49;95491.28;5156880;27;2004;-49
2022/06/28 07:06:39;;;;;;;;;;;;;;;26.41;59.90;95493.41;5157647;27;999;-49
2022/06/28 07:09:05;;;;;;;;;;;;;;;26.48;57.31;95496.78;5157283;27;1015;-49
2022/06/28 07:11:32;;;;;;;;;;;;;;;26.52;57.52;95489.69;5157340;27;1074;-49
2022/06/28 07:13:58;;;;;;;;;;;;;;;26.62;58.63;95498.09;5157241;27;1035;-49
2022/06/28 07:16:24;;;;;;;;;;;;;;;26.65;57.71;95494.00;5157340;27;941;-49
2022/06/28 07:18:50;;;;;;;;;;;;;;;26.71;56.63;95492.16;5157036;27;2010;-49
2022/06/28 07:21:16;;;;;;;;;;;;;;;26.74;55.19;95497.97;5156927;27;1071;-49
2022/06/28 07:23:42;;;;;;;;;;;;;;;26.67;55.57;95494.59;5157253;27;1039;-49
2022/06/28 07:26:08;;;;;;;;;;;;;;;26.72;55.60;95502.06;5156869;27;1909;-49
2022/06/28 07:28:34;;;;;;;;;;;;;;;26.77;55.47;95502.13;5157019;27;1054;-49
2022/06/28 07:31:00;;;;;;;;;;;;;;;26.95;55.76;95498.22;5156730;27;1019;-49
2022/06/28 07:33:26;;;;;;;;;;;;;;;27.01;55.82;95506.25;5156871;27;1050;-49
2022/06/28 07:35:52;;;;;;;;;;;;;;;27.08;55.59;95498.66;5156413;27;1036;-49
2022/06/28 07:38:18;;;;;;;;;;;;;;;27.11;56.33;95497.34;5156876;27;1038;-49
2022/06/28 07:40:44;;;;;;;;;;;;;;;27.12;55.02;95496.25;5156714;27;994;-49
2022/06/28 07:43:10;;;;;;;;;;;;;;;27.18;54.75;95495.19;5143588;27;1153;-49
2022/06/28 07:45:39;;;;;;;;;;;;;;;27.19;52.42;95493.31;5135733;27;1898;-49
2022/06/28 07:48:06;;;;;;;;;;;;;;;27.22;52.25;95501.00;5135658;27;1017;-49
2022/06/28 07:53:17;;;;;;;;;;;;;;;27.18;50.37;95486.97;5135657;27;1078;-49
2022/06/28 07:55:43;;;;;;;;;;;;;;;27.42;51.73;95487.53;5135686;27;1044;-49
2022/06/28 07:58:09;;;;;;;;;;;;;;;27.57;50.65;95486.84;5136070;27;981;-49
2022/06/28 08:00:35;;;;;;;;;;;;;;;27.61;49.44;95479.75;5135313;27;1855;-49
2022/06/28 08:03:01;;;;;;;;;;;;;;;27.59;50.34;95478.38;5135424;27;1086;-49
2022/06/28 08:05:27;;;;;;;;;;;;;;;27.49;48.19;95470.88;5135208;27;2005;-49
2022/06/28 08:07:53;;;;;;;;;;;;;;;27.54;49.94;95470.88;5135548;27;1003;-49
2022/06/28 08:10:19;;;;;;;;;;;;;;;27.67;51.26;95472.38;5135114;27;1079;-49
2022/06/28 08:12:45;;;;;;;;;;;;;;;27.81;50.78;95462.63;5135431;27;987;-49
2022/06/28 08:15:11;;;;;;;;;;;;;;;27.82;50.27;95458.78;5134888;27;1087;-49
2022/06/28 08:17:38;;;;;;;;;;;;;;;27.93;49.18;95459.72;5135186;27;1095;-49
2022/06/28 08:20:04;;;;;;;;;;;;;;;28.04;49.79;95468.88;5134968;27;1388;-49
2022/06/28 08:22:30;;;;;;;;;;;;;;;28.15;49.49;95456.00;5134955;27;1241;-49
2022/06/28 08:24:56;;;;;;;;;;;;;;;28.20;51.44;95458.81;5135128;27;1996;-49
2022/06/28 08:27:22;;;;;;;;;;;;;;;28.14;49.60;95466.19;5134858;27;1043;-49
2022/06/28 08:29:50;;;;;;;;;;;;;;;28.18;49.92;95469.25;5135006;27;1080;-49
2022/06/28 08:32:17;;;;;;;;;;;;;;;28.31;49.12;95459.72;5134697;27;1091;-49
2022/06/28 08:34:43;;;;;;;;;;;;;;;28.30;47.40;95463.53;5134930;27;1021;-49
2022/06/28 08:37:09;;;;;;;;;;;;;;;28.34;47.87;95459.16;5134635;27;1127;-49
2022/06/28 08:39:35;;;;;;;;;;;;;;;28.31;45.86;95455.03;5135005;27;972;-49
2022/06/28 08:42:02;;;;;;;;;;;;;;;28.40;45.67;95460.84;5137234;27;1164;-49
2022/06/28 08:44:31;;;;;;;;;;;;;;;28.52;47.65;95461.50;5155416;27;1982;-50
2022/06/28 08:46:57;;;;;;;;;;;;;;;28.66;48.84;95458.25;5155539;27;973;-49
2022/06/28 08:49:23;;;;;;;;;;;;;;;28.67;48.31;95454.44;5155336;27;1115;-49
2022/06/28 08:51:50;;;;;;;;;;;;;;;28.65;47.84;95456.59;5155246;27;1016;-50
2022/06/28 08:54:18;;;;;;;;;;;;;;;28.63;48.03;95456.88;5155361;27;1054;-49
2022/06/28 08:56:44;;;;;;;;;;;;;;;28.64;48.53;95463.19;5155157;27;1033;-49
2022/06/28 08:59:10;;;;;;;;;;;;;;;28.68;48.00;95456.06;5155187;27;984;-49
2022/06/28 09:01:36;;;;;;;;;;;;;;;28.75;47.54;95460.22;5155320;27;1007;-48
2022/06/28 09:04:04;;;;;;;;;;;;;;;28.69;46.03;95455.00;5154924;27;1016;-49
2022/06/28 09:06:30;;;;;;;;;;;;;;;28.74;48.94;95457.75;5155104;27;1905;-49
2022/06/28 09:08:56;;;;;;;;;;;;;;;28.77;48.33;95460.78;5155273;27;1198;-49
2022/06/28 09:11:22;;;;;;;;;;;;;;;28.83;47.30;95455.31;5154977;27;1007;-49
2022/06/28 09:13:48;;;;;;;;;;;;;;;28.78;45.57;95459.69;5155078;27;1094;-49
2022/06/28 09:16:14;;;;;;;;;;;;;;;28.81;46.04;95447.31;5155088;27;1054;-49
2022/06/28 09:18:40;;;;;;;;;;;;;;;28.90;47.70;95439.38;5155311;27;973;-49
2022/06/28 09:21:08;;;;;;;;;;;;;;;28.94;46.45;95443.25;5154901;27;1075;-49
2022/06/28 09:23:36;;;;;;;;;;;;;;;28.87;49.20;95448.97;5154983;27;943;-49
2022/06/28 09:26:06;;;;;;;;;;;;;;;28.77;48.72;95451.72;5154988;27;1905;-49
2022/06/28 09:28:33;;;;;;;;;;;;;;;28.76;47.23;95445.38;5154889;27;1024;-49
2022/06/28 09:31:17;;;;;;;;;;;;;;;28.83;47.91;95445.13;5155030;27;1103;-50
2022/06/28 09:33:44;;;;;;;;;;;;;;;28.83;44.54;95436.88;5154903;27;976;-49
2022/06/28 09:36:12;;;;;;;;;;;;;;;28.93;46.49;95438.81;5154613;27;987;-49
2022/06/28 09:38:38;;;;;;;;;;;;;;;29.02;48.08;95437.19;5154726;27;968;-49
2022/06/28 09:41:04;;;;;;;;;;;;;;;29.08;46.74;95432.53;5154646;27;1959;-49
2022/06/28 09:43:32;;;;;;;;;;;;;;;29.18;45.73;95440.88;5138976;27;1204;-49
2022/06/28 09:46:01;;;;;;;;;;;;;;;29.22;46.24;95436.47;5134224;28;1918;-49
2022/06/28 09:48:31;;;;;;;;;;;;;;;29.16;48.20;95421.06;5133876;28;1968;-49
2022/06/28 09:50:57;;;;;;;;;;;;;;;29.19;46.89;95417.72;5134539;28;956;-49
2022/06/28 09:53:24;;;;;;;;;;;;;;;29.29;48.62;95420.53;5135356;27;1035;-49
2022/06/28 09:55:51;;;;;;;;;;;;;;;29.36;45.55;95421.06;5138036;27;1055;-49
2022/06/28 09:58:19;;;;;;;;;;;;;;;29.31;46.08;95417.47;5137759;27;1055;-49
2022/06/28 10:00:45;;;;;;;;;;;;;;;29.28;44.98;95416.09;5138139;27;1075;-49
2022/06/28 10:03:11;;;;;;;;;;;;;;;29.28;42.64;95413.34;5137801;27;1047;-49
2022/06/28 10:05:38;;;;;;;;;;;;;;;29.27;42.43;95414.44;5137703;27;1930;-49
2022/06/28 10:08:05;;;;;;;;;;;;;;;29.29;43.93;95416.91;5137565;27;1055;-49
2022/06/28 10:10:32;;;;;;;;;;;;;;;29.37;44.66;95421.91;5137789;27;1035;-49
2022/06/28 10:15:53;;;;;;;;;;;;;;;29.41;43.06;95417.50;5137887;27;1044;-49
2022/06/28 10:18:21;;;;;;;;;;;;;;;29.44;43.38;95427.13;5137404;27;1020;-49
2022/06/28 10:20:47;;;;;;;;;;;;;;;29.42;43.38;95416.38;5137425;27;1083;-49
2022/06/28 10:23:20;;;;;;;;;;;;;;;29.45;44.27;95413.09;5137530;27;979;-49
2022/06/28 10:26:04;;;;;;;;;;;;;;;29.55;43.57;95423.28;5137772;27;1906;-49
2022/06/28 10:28:35;;;;;;;;;;;;;;;29.54;41.96;95421.66;5137391;27;1041;-49
2022/06/28 10:31:20;;;;;;;;;;;;;;;29.48;41.55;95412.56;5137409;27;980;-50
2022/06/28 10:33:46;;;;;;;;;;;;;;;29.49;43.07;95402.34;5137179;27;1024;-49
2022/06/28 10:36:14;;;;;;;;;;;;;;;29.48;44.41;95409.81;5137194;27;1031;-49
2022/06/28 10:38:58;;;;;;;;;;;;;;;29.46;44.33;95405.66;5137106;27;984;-49
2022/06/28 10:41:35;;;;;;;;;;;;;;;29.47;44.58;95405.38;5137164;27;969;-49
2022/06/28 10:44:05;;;;;;;;;;;;;;;29.48;44.12;95398.78;5157381;27;1249;-49
2022/06/28 10:46:31;;;;;;;;;;;;;;;29.21;45.90;95385.25;5157975;27;1985;-49
2022/06/28 10:49:02;;;;;;;;;;;;;;;29.31;46.80;95384.44;5157655;27;1098;-48
2022/06/28 10:51:28;;;;;;;;;;;;;;;29.39;45.26;95389.41;5157885;27;1031;-49
2022/06/28 10:53:57;;;;;;;;;;;;;;;29.45;44.21;95369.03;5157535;27;1083;-49
2022/06/28 10:56:24;;;;;;;;;;;;;;;29.52;43.25;95377.84;5157488;27;1507;-49
2022/06/28 10:58:56;;;;;;;;;;;;;;;29.64;44.31;95377.56;5157654;27;959;-49
2022/06/28 11:01:40;;;;;;;;;;;;;;;29.71;43.72;95372.59;5157501;27;1972;-49
2022/06/28 11:04:11;;;;;;;;;;;;;;;29.63;43.38;95375.06;5156710;27;1044;-49
2022/06/28 11:06:44;;;;;;;;;;;;;;;29.59;44.04;95378.41;5157403;27;1016;-49
2022/06/28 11:09:30;;;;;;;;;;;;;;;29.55;44.02;95363.50;5157443;27;987;-49
2022/06/28 11:12:13;;;;;;;;;;;;;;;29.65;43.18;95351.66;5105066;27;1163;-49
2022/06/28 11:14:51;;;;;;;;;;;;;;;29.71;43.17;95366.25;5157152;27;913;-49
2022/06/28 11:17:20;;;;;;;;;;;;;;;29.70;41.48;95368.19;5157124;27;1032;-49
2022/06/28 11:19:53;;;;;;;;;;;;;;;29.59;41.70;95361.88;5157257;27;1033;-49
2022/06/28 11:22:20;;;;;;;;;;;;;;;29.61;41.92;95360.75;5156969;27;1256;-49
2022/06/28 11:24:46;;;;;;;;;;;;;;;29.65;38.83;95361.84;5156951;27;1905;-49
2022/06/28 11:27:22;;;;;;;;;;;;;;;29.67;39.15;95363.25;5157103;27;1067;-49
2022/06/28 11:29:53;;;;;;;;;;;;;;;29.65;39.53;95361.84;5156792;27;1015;-49
2022/06/28 11:32:20;;;;;;;;;;;;;;;29.58;37.24;95368.47;5156831;27;1032;-49
2022/06/28 11:34:54;;;;;;;;;;;;;;;29.58;37.25;95362.97;5156715;27;995;-49
2022/06/28 11:37:21;;;;;;;;;;;;;;;29.70;39.62;95368.19;5156791;27;1087;-49
2022/06/28 11:39:49;;;;;;;;;;;;;;;29.71;39.52;95366.25;5156647;27;1087;-49
2022/06/28 11:42:15;;;;;;;;;;;;;;;29.66;38.23;95363.50;5151421;27;1152;-49
2022/06/28 11:44:41;;;;;;;;;;;;;;;29.55;39.57;95368.19;5135716;27;1995;-49
2022/06/28 11:47:09;;;;;;;;;;;;;;;29.49;37.37;95370.13;5136080;27;977;-49
2022/06/28 11:49:35;;;;;;;;;;;;;;;29.50;37.04;95354.41;5135930;27;958;-49
2022/06/28 11:52:02;;;;;;;;;;;;;;;29.56;38.72;95372.63;5135740;27;1075;-49
2022/06/28 11:54:28;;;;;;;;;;;;;;;29.61;38.92;95369.84;5135582;27;993;-49
2022/06/28 11:56:54;;;;;;;;;;;;;;;29.64;38.76;95366.53;5135729;27;1011;-49
2022/06/28 11:59:20;;;;;;;;;;;;;;;29.68;39.72;95373.13;5135684;27;984;-49
2022/06/28 12:01:46;;;;;;;;;;;;;;;29.62;38.90;95373.44;5135632;27;1020;-49
2022/06/28 12:04:19;;;;;;;;;;;;;;;29.55;37.08;95369.00;5117138;27;1786;-49
2022/06/28 12:06:45;;;;;;;;;;;;;;;29.64;40.25;95372.06;5135614;27;992;-49
2022/06/28 12:09:12;;;;;;;;;;;;;;;29.76;40.78;95382.81;5135308;27;954;-49
2022/06/28 12:11:40;;;;;;;;;;;;;;;29.71;39.61;95377.25;5135387;27;1023;-49
2022/06/28 12:14:07;;;;;;;;;;;;;;;29.74;38.38;95380.31;5135253;27;1087;-49
2022/06/28 12:16:34;;;;;;;;;;;;;;;29.68;38.76;95372.31;5134589;27;991;-49
2022/06/28 12:19:01;;;;;;;;;;;;;;;29.74;37.61;95374.81;5135344;27;1023;-49
2022/06/28 12:21:28;;;;;;;;;;;;;;;29.76;39.48;95378.13;5134801;27;1095;-49
2022/06/28 12:23:55;;;;;;;;;;;;;;;29.72;38.62;95368.72;5135232;27;988;-49
2022/06/28 12:26:21;;;;;;;;;;;;;;;29.78;38.68;95369.56;5134795;27;1905;-49
2022/06/28 12:28:47;;;;;;;;;;;;;;;29.80;38.25;95374.81;5135326;27;1019;-49
2022/06/28 12:31:14;;;;;;;;;;;;;;;29.80;41.73;95378.38;5134937;27;1013;-49
2022/06/28 12:33:39;;;;;;;;;;;;;;;29.74;38.65;95366.53;5135178;27;961;-49
2022/06/28 12:36:05;;;;;;;;;;;;;;;29.76;40.69;95374.53;5134649;27;1053;-49
2022/06/28 12:38:31;;;;;;;;;;;;;;;29.84;40.01;95385.03;5134891;27;1972;-49
2022/06/28 12:40:57;;;;;;;;;;;;;;;29.86;39.57;95376.47;5134749;27;1084;-49
2022/06/28 12:43:23;;;;;;;;;;;;;;;29.91;39.69;95366.25;5149824;27;1274;-49
2022/06/28 12:45:49;;;;;;;;;;;;;;;30.00;39.24;95357.44;5155544;27;1906;-49
2022/06/28 12:48:15;;;;;;;;;;;;;;;29.96;38.47;95344.19;5155421;27;991;-49
2022/06/28 12:50:41;;;;;;;;;;;;;;;29.89;39.76;95331.81;5136968;27;999;-49
2022/06/28 12:53:08;;;;;;;;;;;;;;;29.80;37.86;95315.00;5155378;27;1151;-49
2022/06/28 12:55:34;;;;;;;;;;;;;;;29.74;36.95;95283.88;5155109;27;1004;-49
2022/06/28 12:58:00;;;;;;;;;;;;;;;29.62;36.84;95275.09;5155521;27;1046;-49
2022/06/28 13:00:26;;;;;;;;;;;;;;;29.61;37.56;95281.69;5155308;27;988;-49
2022/06/28 13:02:52;;;;;;;;;;;;;;;29.81;37.72;95291.06;5155394;27;972;-49
2022/06/28 13:05:19;;;;;;;;;;;;;;;29.92;37.86;95278.91;5154766;27;1910;-49
2022/06/28 13:07:46;;;;;;;;;;;;;;;29.93;38.67;95275.84;5155200;27;1067;-49
2022/06/28 13:10:12;;;;;;;;;;;;;;;29.78;37.92;95267.63;5154857;27;1956;-49